createdAt,value
2018-09-05T06:20:02.007Z,98722.00
2018-09-05T06:22:35.972Z,98724.00
2018-09-05T06:25:10.419Z,98722.00
2018-09-05T06:27:45.041Z,98723.00
2018-09-05T06:30:26.585Z,98725.00
2018-09-05T06:33:03.341Z,98725.00
2018-09-05T06:35:34.397Z,98726.00
2018-09-05T06:38:03.863Z,98718.00
2018-09-05T06:40:37.105Z,98714.00
2018-09-05T06:43:18.916Z,98710.00
2018-09-05T06:45:58.241Z,98711.00
2018-09-05T06:48:31.227Z,98707.00
2018-09-05T06:51:06.777Z,98695.00
2018-09-05T06:53:44.293Z,98693.00
2018-09-05T06:56:14.705Z,98689.00
2018-09-05T06:58:58.793Z,98688.00
2018-09-05T07:01:30.176Z,98683.00
2018-09-05T07:04:03.794Z,98678.00
2018-09-05T07:06:36.049Z,98681.00
2018-09-05T07:09:12.429Z,98676.00
2018-09-05T07:11:42.513Z,98673.00
2018-09-05T07:14:16.140Z,98669.00
2018-09-05T07:16:55.222Z,98668.00
2018-09-05T07:19:28.957Z,98663.00
2018-09-05T07:22:04.151Z,98656.00
2018-09-05T07:24:38.841Z,98655.00
2018-09-05T07:27:18.642Z,98655.00
2018-09-05T07:30:03.403Z,98649.00
2018-09-05T07:32:38.363Z,98650.00
2018-09-05T07:35:14.577Z,98645.00
2018-09-05T07:37:47.333Z,98642.00
2018-09-05T07:40:17.499Z,98634.00
2018-09-05T07:43:59.091Z,98633.00
2018-09-05T07:46:29.837Z,98637.00
2018-09-05T07:49:13.590Z,98636.00
2018-09-05T07:51:44.408Z,98649.00
2018-09-05T07:54:18.969Z,98637.00
2018-09-05T07:56:53.597Z,98630.00
2018-09-05T07:59:28.819Z,98635.00
2018-09-05T08:02:02.197Z,98636.00
2018-09-05T08:04:39.854Z,98638.00
2018-09-05T08:07:09.597Z,98641.00
2018-09-05T08:09:41.268Z,98638.00
2018-09-05T08:12:19.201Z,98637.00
2018-09-05T08:14:51.277Z,98632.00
2018-09-05T08:17:25.857Z,98634.00
2018-09-05T08:20:00.828Z,98647.00
2018-09-05T08:22:32.039Z,98630.00
2018-09-05T08:25:10.420Z,98628.00
2018-09-05T08:27:49.225Z,98624.00
2018-09-05T08:30:25.089Z,98621.00
2018-09-05T08:32:55.465Z,98618.00
2018-09-05T08:35:25.003Z,98618.00
2018-09-05T08:37:54.567Z,98615.00
2018-09-05T08:40:24.310Z,98609.00
2018-09-05T08:42:55.455Z,98618.00
2018-09-05T08:45:24.872Z,98612.00
2018-09-05T08:47:54.405Z,98620.00
2018-09-05T08:50:23.378Z,98615.00
2018-09-05T08:52:52.550Z,98619.00
2018-09-05T08:55:21.816Z,98621.00
2018-09-05T08:57:50.808Z,98618.00
2018-09-05T09:00:19.904Z,98613.00
2018-09-05T09:02:49.084Z,98617.00
2018-09-05T09:05:20.405Z,98611.00
2018-09-05T09:07:50.732Z,98604.00
2018-09-05T09:10:19.880Z,98608.00
2018-09-05T09:12:48.973Z,98590.00
2018-09-05T09:15:18.385Z,98589.00
2018-09-05T09:17:47.983Z,98593.00
2018-09-05T09:20:17.102Z,98598.00
2018-09-05T09:22:46.327Z,98592.00
2018-09-05T09:25:17.285Z,98604.00
2018-09-05T09:27:46.428Z,98599.00
2018-09-05T09:30:15.870Z,98591.00
2018-09-05T09:32:45.908Z,98586.00
2018-09-05T09:35:15.757Z,98585.00
2018-09-05T09:37:45.561Z,98585.00
2018-09-05T09:40:14.712Z,98586.00
2018-09-05T09:42:43.872Z,98578.00
2018-09-05T09:45:13.068Z,98582.00
2018-09-05T09:47:42.957Z,98574.00
2018-09-05T09:50:12.856Z,98567.00
2018-09-05T09:52:42.601Z,98558.00
2018-09-05T09:55:12.053Z,98558.00
2018-09-05T09:57:41.248Z,98563.00
2018-09-05T10:00:11.995Z,98564.00
2018-09-05T10:02:46.513Z,98558.00
2018-09-05T10:05:20.892Z,98558.00
2018-09-05T10:07:56.054Z,98570.00
2018-09-05T10:10:30.616Z,98555.00
2018-09-05T10:13:04.859Z,98550.00
2018-09-05T10:15:39.757Z,98536.00
2018-09-05T10:18:14.040Z,98541.00
2018-09-05T10:20:43.152Z,98551.00
2018-09-05T10:23:13.904Z,98543.00
2018-09-05T10:25:43.336Z,98528.00
2018-09-05T10:28:12.395Z,98518.00
2018-09-05T10:30:42.441Z,98517.00
2018-09-05T10:33:11.545Z,98535.00
2018-09-05T10:35:43.197Z,98547.00
2018-09-05T10:38:13.217Z,98536.00
2018-09-05T10:40:42.311Z,98530.00
2018-09-05T10:43:12.008Z,98537.00
2018-09-05T10:45:41.212Z,98536.00
2018-09-05T10:48:10.461Z,98541.00
2018-09-05T10:50:40.167Z,98530.00
2018-09-05T10:53:09.384Z,98519.00
2018-09-05T10:55:38.596Z,98521.00
2018-09-05T10:58:10.106Z,98515.00
2018-09-05T11:00:39.335Z,98507.00
2018-09-05T11:03:09.078Z,98510.00
2018-09-05T11:05:38.143Z,98507.00
2018-09-05T11:08:08.652Z,98512.00
2018-09-05T11:10:38.669Z,98506.00
2018-09-05T11:13:07.822Z,98504.00
2018-09-05T11:15:37.193Z,98501.00
2018-09-05T11:18:06.304Z,98502.00
2018-09-05T11:20:37.269Z,98485.00
2018-09-05T11:23:06.928Z,98502.00
2018-09-05T11:25:38.617Z,98498.00
2018-09-05T11:28:07.776Z,98500.00
2018-09-05T11:30:37.041Z,98498.00
2018-09-05T11:33:06.200Z,98495.00
2018-09-05T11:35:35.304Z,98492.00
2018-09-05T11:38:05.172Z,98500.00
2018-09-05T11:40:34.359Z,98502.00
2018-09-05T11:43:03.470Z,98486.00
2018-09-05T11:45:33.996Z,98481.00
2018-09-05T11:48:03.286Z,98482.00
2018-09-05T11:50:33.077Z,98481.00
2018-09-05T11:53:02.548Z,98477.00
2018-09-05T11:55:31.709Z,98476.00
2018-09-05T11:58:01.328Z,98471.00
2018-09-05T12:00:30.548Z,98494.00
2018-09-05T12:03:00.676Z,98476.00
2018-09-05T12:05:29.968Z,98472.00
2018-09-05T12:07:59.960Z,98491.00
2018-09-05T12:10:29.809Z,98488.00
2018-09-05T12:12:58.901Z,98481.00
2018-09-05T12:15:28.145Z,98472.00
2018-09-05T12:17:58.114Z,98472.00
2018-09-05T12:20:27.216Z,98468.00
2018-09-05T12:22:56.676Z,98464.00
2018-09-05T12:25:25.780Z,98459.00
2018-09-05T12:27:54.917Z,98463.00
2018-09-05T12:30:24.313Z,98460.00
2018-09-05T12:32:55.036Z,98454.00
2018-09-05T12:35:24.244Z,98456.00
2018-09-05T12:37:53.612Z,98460.00
2018-09-05T12:40:23.933Z,98461.00
2018-09-05T12:42:53.276Z,98454.00
2018-09-05T12:45:22.525Z,98440.00
2018-09-05T12:47:51.836Z,98439.00
2018-09-05T12:50:20.967Z,98436.00
2018-09-05T12:52:50.668Z,98433.00
2018-09-05T12:55:19.760Z,98433.00
2018-09-05T12:57:48.892Z,98427.00
2018-09-05T13:00:17.997Z,98428.00
2018-09-05T13:02:47.642Z,98428.00
2018-09-05T13:05:16.745Z,98426.00
2018-09-05T13:07:46.175Z,98415.00
2018-09-05T13:10:15.376Z,98422.00
2018-09-05T13:12:44.548Z,98416.00
2018-09-05T13:15:13.756Z,98407.00
2018-09-05T13:17:42.868Z,98407.00
2018-09-05T13:20:12.012Z,98425.00
2018-09-05T13:22:42.637Z,98420.00
2018-09-05T13:25:12.500Z,98418.00
2018-09-05T13:27:42.284Z,98408.00
2018-09-05T13:30:11.433Z,98409.00
2018-09-05T13:32:40.578Z,98400.00
2018-09-05T13:35:10.424Z,98403.00
2018-09-05T13:37:39.828Z,98402.00
2018-09-05T13:40:10.053Z,98396.00
2018-09-05T13:42:41.052Z,98395.00
2018-09-05T13:45:10.291Z,98395.00
2018-09-05T13:47:39.377Z,98391.00
2018-09-05T13:50:08.472Z,98394.00
2018-09-05T13:52:37.844Z,98397.00
2018-09-05T13:55:07.076Z,98392.00
2018-09-05T13:57:36.368Z,98391.00
2018-09-05T14:00:05.568Z,98388.00
2018-09-05T14:02:35.094Z,98386.00
2018-09-05T14:05:04.177Z,98378.00
2018-09-05T14:07:34.244Z,98393.00
2018-09-05T14:10:03.402Z,98395.00
2018-09-05T14:12:32.834Z,98393.00
2018-09-05T14:15:01.929Z,98380.00
2018-09-05T14:17:32.286Z,98385.00
2018-09-05T14:20:01.441Z,98377.00
2018-09-05T14:22:30.532Z,98384.00
2018-09-05T14:24:59.617Z,98380.00
2018-09-05T14:27:29.489Z,98376.00
2018-09-05T14:29:58.608Z,98375.00
2018-09-05T14:32:28.184Z,98372.00
2018-09-05T14:34:57.716Z,98378.00
2018-09-05T14:37:26.816Z,98379.00
2018-09-05T14:39:56.297Z,98381.00
2018-09-05T14:42:25.412Z,98380.00
2018-09-05T14:44:54.560Z,98382.00
2018-09-05T14:47:24.652Z,98379.00
2018-09-05T14:49:54.353Z,98386.00
2018-09-05T14:52:23.448Z,98383.00
2018-09-05T14:54:52.535Z,98379.00
2018-09-05T14:57:21.620Z,98380.00
2018-09-05T14:59:51.369Z,98381.00
2018-09-05T15:02:21.205Z,98377.00
2018-09-05T15:04:50.345Z,98374.00
2018-09-05T15:07:19.645Z,98377.00
2018-09-05T15:09:48.647Z,98364.00
2018-09-05T15:12:17.804Z,98368.00
2018-09-05T15:14:46.992Z,98366.00
2018-09-05T15:17:16.152Z,98361.00
2018-09-05T15:19:45.216Z,98359.00
2018-09-05T15:22:14.945Z,98354.00
2018-09-05T15:24:44.079Z,98355.00
2018-09-05T15:27:13.245Z,98350.00
2018-09-05T15:29:42.983Z,98355.00
2018-09-05T15:32:12.101Z,98355.00
2018-09-05T15:34:41.504Z,98347.00
2018-09-05T15:37:11.432Z,98344.00
2018-09-05T15:39:40.552Z,98346.00
2018-09-05T15:42:09.609Z,98339.00
2018-09-05T15:44:38.685Z,98340.00
2018-09-05T15:47:07.825Z,98338.00
2018-09-05T15:49:36.909Z,98335.00
2018-09-05T15:52:07.221Z,98336.00
2018-09-05T15:54:36.981Z,98333.00
2018-09-05T15:57:06.585Z,98331.00
2018-09-05T15:59:35.829Z,98333.00
2018-09-05T16:02:04.965Z,98333.00
2018-09-05T16:04:34.117Z,98329.00
2018-09-05T16:07:03.367Z,98326.00
2018-09-05T16:09:32.417Z,98327.00
2018-09-05T16:12:01.585Z,98333.00
2018-09-05T16:14:30.646Z,98338.00
2018-09-05T16:16:59.743Z,98329.00
2018-09-05T16:19:28.843Z,98336.00
2018-09-05T16:21:57.987Z,98331.00
2018-09-05T16:24:27.160Z,98335.00
2018-09-05T16:26:56.225Z,98336.00
2018-09-05T16:29:26.215Z,98335.00
2018-09-05T16:31:55.356Z,98339.00
2018-09-05T16:34:24.437Z,98337.00
2018-09-05T16:36:54.040Z,98340.00
2018-09-05T16:39:23.149Z,98340.00
2018-09-05T16:41:53.625Z,98341.00
2018-09-05T16:44:22.776Z,98340.00
2018-09-05T16:46:51.838Z,98338.00
2018-09-05T16:49:20.909Z,98339.00
2018-09-05T16:51:50.065Z,98342.00
2018-09-05T16:54:19.157Z,98342.00
2018-09-05T16:56:48.297Z,98343.00
2018-09-05T16:59:17.904Z,98340.00
2018-09-05T17:01:47.484Z,98344.00
2018-09-05T17:04:16.629Z,98343.00
2018-09-05T17:06:45.724Z,98339.00
2018-09-05T17:09:15.032Z,98342.00
2018-09-05T17:11:44.178Z,98340.00
2018-09-05T17:14:13.192Z,98344.00
2018-09-05T17:16:42.302Z,98345.00
2018-09-05T17:19:11.428Z,98343.00
2018-09-05T17:21:40.520Z,98347.00
2018-09-05T17:24:09.636Z,98351.00
2018-09-05T17:26:38.680Z,98355.00
2018-09-05T17:29:08.419Z,98354.00
2018-09-05T17:31:39.188Z,98349.00
2018-09-05T17:34:08.348Z,98349.00
2018-09-05T17:36:38.014Z,98347.00
2018-09-05T17:39:12.072Z,98353.00
2018-09-05T17:41:41.424Z,98351.00
2018-09-05T17:44:11.248Z,98348.00
2018-09-05T17:46:40.400Z,98357.00
2018-09-05T17:49:09.917Z,98354.00
2018-09-05T17:51:39.088Z,98358.00
2018-09-05T17:54:08.241Z,98360.00
2018-09-05T17:56:37.348Z,98358.00
2018-09-05T17:59:06.740Z,98359.00
2018-09-05T18:01:35.980Z,98358.00
2018-09-05T18:04:05.160Z,98361.00
2018-09-05T18:06:34.480Z,98369.00
2018-09-05T18:09:04.217Z,98369.00
2018-09-05T18:11:33.358Z,98369.00
2018-09-05T18:14:02.656Z,98375.00
2018-09-05T18:16:31.884Z,98380.00
2018-09-05T18:19:01.104Z,98382.00
2018-09-05T18:21:30.237Z,98380.00
2018-09-05T18:23:59.980Z,98381.00
2018-09-05T18:26:32.174Z,98388.00
2018-09-05T18:29:01.338Z,98383.00
2018-09-05T18:31:30.434Z,98387.00
2018-09-05T18:33:59.564Z,98387.00
2018-09-05T18:36:29.674Z,98389.00
2018-09-05T18:38:58.847Z,98393.00
2018-09-05T18:41:27.932Z,98393.00
2018-09-05T18:43:57.037Z,98394.00
2018-09-05T18:46:26.148Z,98392.00
2018-09-05T18:48:55.262Z,98396.00
2018-09-05T18:51:24.334Z,98395.00
2018-09-05T18:53:53.458Z,98407.00
2018-09-05T18:56:22.524Z,98399.00
2018-09-05T18:58:51.532Z,98401.00
2018-09-05T19:01:20.637Z,98397.00
2018-09-05T19:03:49.684Z,98403.00
2018-09-05T19:06:18.828Z,98398.00
2018-09-05T19:08:47.918Z,98392.00
2018-09-05T19:11:17.260Z,98396.00
2018-09-05T19:13:47.852Z,98395.00
2018-09-05T19:16:17.120Z,98391.00
2018-09-05T19:18:46.252Z,98395.00
2018-09-05T19:21:15.388Z,98395.00
2018-09-05T19:23:45.511Z,98395.00
2018-09-05T19:26:14.856Z,98397.00
2018-09-05T19:28:43.936Z,98397.00
2018-09-05T19:31:13.025Z,98398.00
2018-09-05T19:33:42.232Z,98399.00
2018-09-05T19:36:11.353Z,98400.00
2018-09-05T19:38:40.439Z,98398.00
2018-09-05T19:41:09.712Z,98396.00
2018-09-05T19:43:40.720Z,98399.00
2018-09-05T19:46:09.949Z,98399.00
2018-09-05T19:48:39.043Z,98394.00
2018-09-05T19:51:08.167Z,98397.00
2018-09-05T19:53:38.571Z,98394.00
2018-09-05T19:56:07.672Z,98399.00
2018-09-05T19:58:36.867Z,98396.00
2018-09-05T20:01:06.057Z,98395.00
2018-09-05T20:03:35.157Z,98398.00
2018-09-05T20:06:04.249Z,98390.00
2018-09-05T20:08:33.444Z,98390.00
2018-09-05T20:11:02.597Z,98384.00
2018-09-05T20:13:32.280Z,98384.00
2018-09-05T20:16:01.617Z,98385.00
2018-09-05T20:18:30.772Z,98383.00
2018-09-05T20:20:59.835Z,98385.00
2018-09-05T20:23:30.043Z,98382.00
2018-09-05T20:25:59.109Z,98383.00
2018-09-05T20:28:30.632Z,98382.00
2018-09-05T20:30:59.799Z,98382.00
2018-09-05T20:33:28.894Z,98386.00
2018-09-05T20:35:58.020Z,98382.00
2018-09-05T20:38:27.084Z,98380.00
2018-09-05T20:40:57.193Z,98385.00
2018-09-05T20:43:26.325Z,98386.00
2018-09-05T20:45:56.764Z,98385.00
2018-09-05T20:48:27.025Z,98380.00
2018-09-05T20:50:57.216Z,98382.00
2018-09-05T20:53:26.613Z,98382.00
2018-09-05T20:55:55.767Z,98381.00
2018-09-05T20:58:25.617Z,98382.00
2018-09-05T21:00:54.689Z,98381.00
2018-09-05T21:03:25.308Z,98386.00
2018-09-05T21:05:54.405Z,98381.00
2018-09-05T21:08:23.562Z,98385.00
2018-09-05T21:10:52.702Z,98389.00
2018-09-05T21:13:21.890Z,98387.00
2018-09-05T21:15:51.041Z,98386.00
2018-09-05T21:18:20.132Z,98385.00
2018-09-05T21:20:49.501Z,98379.00
2018-09-05T21:23:18.924Z,98380.00
2018-09-05T21:25:48.037Z,98379.00
2018-09-05T21:28:17.154Z,98380.00
2018-09-05T21:30:46.620Z,98379.00
2018-09-05T21:33:17.044Z,98378.00
2018-09-05T21:35:46.140Z,98382.00
2018-09-05T21:38:15.392Z,98382.00
2018-09-05T21:40:44.493Z,98381.00
2018-09-05T21:43:14.092Z,98384.00
2018-09-05T21:45:43.693Z,98381.00
2018-09-05T21:48:12.759Z,98384.00
2018-09-05T21:50:42.710Z,98383.00
2018-09-05T21:53:11.856Z,98384.00
2018-09-05T21:55:40.976Z,98387.00
2018-09-05T21:58:10.122Z,98389.00
2018-09-05T22:00:39.232Z,98389.00
2018-09-05T22:03:08.315Z,98388.00
2018-09-05T22:05:37.428Z,98377.00
2018-09-05T22:08:06.789Z,98380.00
2018-09-05T22:10:35.948Z,98387.00
2018-09-05T22:13:05.087Z,98389.00
2018-09-05T22:15:44.704Z,98388.00
2018-09-05T22:18:14.020Z,98385.00
2018-09-05T22:20:43.317Z,98388.00
2018-09-05T22:23:12.444Z,98383.00
2018-09-05T22:25:41.581Z,98383.00
2018-09-05T22:28:10.699Z,98384.00
2018-09-05T22:30:39.856Z,98382.00
2018-09-05T22:33:08.968Z,98380.00
2018-09-05T22:35:38.081Z,98385.00
2018-09-05T22:38:07.228Z,98378.00
2018-09-05T22:40:42.652Z,98379.00
2018-09-05T22:43:28.888Z,98373.00
2018-09-05T22:46:14.952Z,98371.00
2018-09-05T22:49:06.926Z,98369.00
2018-09-05T22:53:26.244Z,98368.00
2018-09-05T22:58:22.423Z,98365.00
2018-09-05T23:03:44.661Z,98358.00
2018-09-05T23:08:35.069Z,98361.00
2018-09-05T23:11:22.193Z,98357.00
2018-09-05T23:14:12.163Z,98357.00
2018-09-05T23:20:02.415Z,98355.00
2018-09-05T23:22:48.830Z,98356.00
2018-09-05T23:25:18.110Z,98351.00
2018-09-05T23:27:47.361Z,98352.00
2018-09-05T23:30:16.456Z,98349.00
2018-09-05T23:32:45.616Z,98350.00
2018-09-05T23:35:15.618Z,98347.00
2018-09-05T23:37:44.710Z,98343.00
2018-09-05T23:40:13.898Z,98338.00
2018-09-05T23:42:43.018Z,98337.00
2018-09-05T23:45:12.514Z,98343.00
2018-09-05T23:47:41.601Z,98345.00
2018-09-05T23:50:10.718Z,98341.00
2018-09-05T23:52:39.881Z,98344.00
2018-09-05T23:55:09.414Z,98342.00
2018-09-05T23:57:38.473Z,98341.00
